createdAt,value
2018-09-22T00:01:26.968Z,98196.05
2018-09-22T00:03:54.655Z,98193.03
2018-09-22T00:06:22.309Z,98185.36
2018-09-22T00:08:49.974Z,98172.71
2018-09-22T00:11:17.668Z,98166.16
2018-09-22T00:13:45.344Z,98165.49
2018-09-22T00:16:13.028Z,98154.14
2018-09-22T00:18:40.723Z,98148.33
2018-09-22T00:21:08.405Z,98140.17
2018-09-22T00:23:36.107Z,98137.33
2018-09-22T00:26:03.792Z,98139.64
2018-09-22T00:28:31.455Z,98132.95
2018-09-22T00:30:59.175Z,98129.97
2018-09-22T00:33:26.837Z,98134.59
2018-09-22T00:35:54.540Z,98124.39
2018-09-22T00:38:22.279Z,98129.05
2018-09-22T00:40:49.988Z,98129.71
2018-09-22T00:43:17.684Z,98118.36
2018-09-22T00:45:45.356Z,98110.37
2018-09-22T00:48:13.028Z,98106.84
2018-09-22T00:50:40.712Z,98102.67
2018-09-22T00:53:08.376Z,98102.80
2018-09-22T00:55:36.117Z,98100.10
2018-09-22T00:58:03.796Z,98092.30
2018-09-22T01:00:31.496Z,98095.93
2018-09-22T01:02:59.198Z,98103.37
2018-09-22T01:05:26.936Z,98102.00
2018-09-22T01:07:54.620Z,98110.50
2018-09-22T01:10:22.299Z,98106.79
2018-09-22T01:12:49.995Z,98112.11
2018-09-22T01:15:17.660Z,98097.16
2018-09-22T01:17:45.385Z,98099.12
2018-09-22T01:20:13.068Z,98077.53
2018-09-22T01:22:40.775Z,98082.50
2018-09-22T01:25:08.528Z,98071.81
2018-09-22T01:27:36.198Z,98065.66
2018-09-22T01:30:03.984Z,98074.96
2018-09-22T01:32:31.702Z,98057.36
2018-09-22T01:34:59.351Z,98062.02
2018-09-22T01:37:27.033Z,98050.06
2018-09-22T01:39:54.714Z,98047.40
2018-09-22T01:42:22.367Z,98049.39
2018-09-22T01:44:50.067Z,98057.36
2018-09-22T01:47:17.727Z,98054.35
2018-09-22T01:49:45.399Z,98039.88
2018-09-22T01:52:13.124Z,98032.42
2018-09-22T01:54:40.799Z,98038.71
2018-09-22T01:57:08.509Z,98035.70
2018-09-22T01:59:36.215Z,98031.71
2018-09-22T02:02:03.906Z,98022.58
2018-09-22T02:04:31.595Z,98028.70
2018-09-22T02:06:59.276Z,98030.55
2018-09-22T02:09:26.944Z,98026.22
2018-09-22T02:11:54.666Z,98028.69
2018-09-22T02:14:22.364Z,98029.02
2018-09-22T02:16:50.028Z,98040.16
2018-09-22T02:19:17.856Z,98037.51
2018-09-22T02:21:45.523Z,98036.50
2018-09-22T02:24:13.188Z,98032.02
2018-09-22T02:26:40.889Z,98034.84
2018-09-22T02:29:08.580Z,98027.37
2018-09-22T02:31:36.400Z,98036.67
2018-09-22T02:34:04.084Z,98033.52
2018-09-22T02:36:31.751Z,98031.35
2018-09-22T02:38:59.524Z,98031.31
2018-09-22T02:41:27.199Z,98019.66
2018-09-22T02:43:54.929Z,98009.86
2018-09-22T02:46:22.598Z,98024.31
2018-09-22T02:48:50.266Z,98004.20
2018-09-22T02:51:18.001Z,98011.50
2018-09-22T02:53:45.693Z,98008.98
2018-09-22T02:56:13.360Z,97992.33
2018-09-22T02:58:41.047Z,97983.06
2018-09-22T03:01:08.821Z,97975.41
2018-09-22T03:03:36.527Z,97981.91
2018-09-22T03:06:04.201Z,97983.73
2018-09-22T03:08:31.964Z,97984.71
2018-09-22T03:10:59.648Z,97973.72
2018-09-22T03:13:27.359Z,97967.88
2018-09-22T03:15:55.019Z,97986.30
2018-09-22T03:18:22.722Z,97985.41
2018-09-22T03:20:50.364Z,97978.23
2018-09-22T03:23:18.020Z,97977.88
2018-09-22T03:25:45.711Z,97971.86
2018-09-22T03:28:13.380Z,97969.50
2018-09-22T03:30:41.045Z,97961.35
2018-09-22T03:33:08.737Z,97967.32
2018-09-22T03:35:36.387Z,97979.41
2018-09-22T03:38:04.072Z,97959.49
2018-09-22T03:40:31.792Z,97965.78
2018-09-22T03:42:59.450Z,97956.78
2018-09-22T03:45:27.134Z,97948.77
2018-09-22T03:47:54.844Z,97956.61
2018-09-22T03:50:22.545Z,97959.56
2018-09-22T03:52:50.196Z,97951.38
2018-09-22T03:55:17.867Z,97960.33
2018-09-22T03:57:45.585Z,97940.04
2018-09-22T04:00:13.260Z,97944.11
2018-09-22T04:02:40.924Z,97951.22
2018-09-22T04:05:08.936Z,97929.93
2018-09-22T04:07:36.872Z,97939.83
2018-09-22T04:10:04.654Z,97945.75
2018-09-22T04:12:32.320Z,97941.59
2018-09-22T04:15:00.087Z,97930.48
2018-09-22T04:17:27.772Z,97921.50
2018-09-22T04:19:55.456Z,97915.66
2018-09-22T04:22:23.132Z,97911.67
2018-09-22T04:24:50.835Z,97924.75
2018-09-22T04:27:18.491Z,97908.08
2018-09-22T04:29:46.171Z,97908.42
2018-09-22T04:32:13.863Z,97892.16
2018-09-22T04:34:41.521Z,97894.48
2018-09-22T04:37:09.244Z,97899.44
2018-09-22T04:39:36.977Z,97900.09
2018-09-22T04:42:04.751Z,97900.39
2018-09-22T04:44:32.409Z,97892.92
2018-09-22T04:47:00.116Z,97902.39
2018-09-22T04:49:27.829Z,97907.05
2018-09-22T04:51:55.483Z,97891.13
2018-09-22T04:54:23.232Z,97890.80
2018-09-22T04:56:50.916Z,97886.83
2018-09-22T04:59:18.571Z,97881.35
2018-09-22T05:01:46.300Z,97892.13
2018-09-22T05:04:13.963Z,97882.01
2018-09-22T05:06:41.632Z,97879.66
2018-09-22T05:09:11.115Z,97884.96
2018-09-22T05:11:38.840Z,97879.48
2018-09-22T05:14:06.597Z,97863.57
2018-09-22T05:16:34.296Z,97852.95
2018-09-22T05:19:02.113Z,97867.36
2018-09-22T05:21:29.792Z,97878.71
2018-09-22T05:23:57.513Z,97874.17
2018-09-22T05:26:25.164Z,97863.22
2018-09-22T05:28:52.844Z,97863.75
2018-09-22T05:31:20.572Z,97847.30
2018-09-22T05:33:48.260Z,97843.63
2018-09-22T05:36:15.943Z,97846.70
2018-09-22T05:38:43.608Z,97848.32
2018-09-22T05:41:11.327Z,97841.99
2018-09-22T05:43:38.989Z,97839.50
2018-09-22T05:46:06.704Z,97854.08
2018-09-22T05:48:34.401Z,97850.41
2018-09-22T05:51:02.212Z,97847.34
2018-09-22T05:53:29.886Z,97846.73
2018-09-22T05:55:57.574Z,97843.41
2018-09-22T05:58:25.272Z,97836.10
2018-09-22T06:00:52.984Z,97830.94
2018-09-22T06:03:20.810Z,97827.13
2018-09-22T06:05:48.532Z,97826.13
2018-09-22T06:08:16.208Z,97824.48
2018-09-22T06:10:43.904Z,97819.17
2018-09-22T06:13:11.573Z,97819.91
2018-09-22T06:15:39.275Z,97810.78
2018-09-22T06:18:06.956Z,97810.84
2018-09-22T06:20:34.660Z,97795.96
2018-09-22T06:23:02.362Z,97794.63
2018-09-22T06:25:30.064Z,97788.92
2018-09-22T06:27:57.755Z,97781.56
2018-09-22T06:30:25.462Z,97778.73
2018-09-22T06:32:53.130Z,97766.94
2018-09-22T06:35:20.802Z,97778.00
2018-09-22T06:37:48.540Z,97777.27
2018-09-22T06:40:16.208Z,97777.34
2018-09-22T06:42:43.894Z,97797.56
2018-09-22T06:45:11.697Z,97792.56
2018-09-22T06:47:39.400Z,97785.29
2018-09-22T06:50:07.092Z,97779.96
2018-09-22T06:52:34.816Z,97772.04
2018-09-22T06:55:02.607Z,97762.83
2018-09-22T06:57:30.272Z,97760.17
2018-09-22T06:59:57.992Z,97758.13
2018-09-22T07:02:25.677Z,97750.30
2018-09-22T07:04:53.405Z,97745.00
2018-09-22T07:07:21.073Z,97744.09
2018-09-22T07:09:48.736Z,97736.45
2018-09-22T07:12:16.436Z,97726.50
2018-09-22T07:14:44.126Z,97731.94
2018-09-22T07:17:11.824Z,97721.86
2018-09-22T07:19:39.554Z,97731.94
2018-09-22T07:23:16.747Z,97727.59
2018-09-22T07:25:44.443Z,97707.91
2018-09-22T07:28:12.187Z,97717.16
2018-09-22T07:30:39.948Z,97705.42
2018-09-22T07:33:07.638Z,97708.27
2018-09-22T07:35:35.444Z,97711.94
2018-09-22T07:38:03.152Z,97703.31
2018-09-22T07:40:31.092Z,97705.61
2018-09-22T07:42:58.802Z,97697.61
2018-09-22T07:45:26.817Z,97690.69
2018-09-22T07:47:54.564Z,97692.42
2018-09-22T07:50:22.271Z,97688.77
2018-09-22T07:52:49.972Z,97675.24
2018-09-22T07:55:17.716Z,97678.80
2018-09-22T07:57:45.419Z,97670.51
2018-09-22T08:00:13.177Z,97672.19
2018-09-22T08:02:40.909Z,97675.94
2018-09-22T08:05:08.576Z,97667.28
2018-09-22T08:07:36.254Z,97665.81
2018-09-22T08:10:04.060Z,97663.22
2018-09-22T08:12:31.720Z,97659.55
2018-09-22T08:14:59.399Z,97679.25
2018-09-22T08:17:27.132Z,97654.03
2018-09-22T08:19:54.795Z,97650.48
2018-09-22T08:22:22.444Z,97648.22
2018-09-22T08:24:50.195Z,97649.95
2018-09-22T08:27:17.849Z,97647.70
2018-09-22T08:29:45.516Z,97639.49
2018-09-22T08:32:13.285Z,97640.19
2018-09-22T08:34:40.978Z,97643.38
2018-09-22T08:37:08.807Z,97645.33
2018-09-22T08:39:36.376Z,97640.23
2018-09-22T08:42:04.228Z,97639.44
2018-09-22T08:44:32.796Z,97628.96
2018-09-22T08:47:00.483Z,97637.27
2018-09-22T08:49:28.198Z,97648.23
2018-09-22T08:51:55.876Z,97635.95
2018-09-22T08:54:23.529Z,97640.90
2018-09-22T08:56:51.264Z,97634.52
2018-09-22T08:59:18.939Z,97618.33
2018-09-22T09:01:46.584Z,97626.01
2018-09-22T09:04:14.275Z,97627.02
2018-09-22T09:06:41.959Z,97623.52
2018-09-22T09:09:10.147Z,97618.85
2018-09-22T09:11:37.965Z,97626.45
2018-09-22T09:14:05.907Z,97629.91
2018-09-22T09:16:33.669Z,97634.07
2018-09-22T09:19:01.384Z,97636.41
2018-09-22T09:21:29.108Z,97630.08
2018-09-22T09:23:56.788Z,97632.30
2018-09-22T09:26:24.471Z,97620.04
2018-09-22T09:28:52.262Z,97621.05
2018-09-22T09:31:19.938Z,97621.91
2018-09-22T09:33:48.352Z,97613.45
2018-09-22T09:36:16.083Z,97609.48
2018-09-22T09:38:43.757Z,97611.21
2018-09-22T09:41:11.467Z,97614.67
2018-09-22T09:43:39.932Z,97623.27
2018-09-22T09:46:07.876Z,97612.42
2018-09-22T09:48:35.574Z,97623.73
2018-09-22T09:51:03.329Z,97622.47
2018-09-22T09:53:31.315Z,97624.45
2018-09-22T09:55:59.192Z,97607.61
2018-09-22T09:58:26.929Z,97619.12
2018-09-22T10:00:54.619Z,97611.97
2018-09-22T10:03:22.296Z,97606.94
2018-09-22T10:05:49.981Z,97595.23
2018-09-22T10:08:24.452Z,97602.33
2018-09-22T10:10:52.281Z,97594.27
2018-09-22T10:13:19.938Z,97604.67
2018-09-22T10:15:47.613Z,97597.59
2018-09-22T10:18:15.347Z,97603.62
2018-09-22T10:20:43.083Z,97603.48
2018-09-22T10:23:10.818Z,97594.91
2018-09-22T10:25:38.548Z,97597.01
2018-09-22T10:28:06.230Z,97602.94
2018-09-22T10:30:33.952Z,97591.99
2018-09-22T10:33:01.661Z,97588.51
2018-09-22T10:35:29.353Z,97594.80
2018-09-22T10:37:57.031Z,97594.33
2018-09-22T10:40:24.772Z,97594.45
2018-09-22T10:42:52.481Z,97599.29
2018-09-22T10:45:20.140Z,97594.22
2018-09-22T10:47:47.809Z,97597.27
2018-09-22T10:50:15.517Z,97598.81
2018-09-22T10:52:43.301Z,97592.81
2018-09-22T10:55:10.944Z,97597.30
2018-09-22T10:57:38.627Z,97595.48
2018-09-22T11:00:06.370Z,97600.95
2018-09-22T11:02:34.073Z,97607.06
2018-09-22T11:05:01.733Z,97608.88
2018-09-22T11:07:29.804Z,97612.21
2018-09-22T11:09:57.495Z,97611.23
2018-09-22T11:12:25.157Z,97619.06
2018-09-22T11:14:52.875Z,97620.72
2018-09-22T11:17:20.571Z,97632.18
2018-09-22T11:19:48.240Z,97634.14
2018-09-22T11:22:15.909Z,97627.40
2018-09-22T11:24:43.592Z,97636.05
2018-09-22T11:27:11.251Z,97641.71
2018-09-22T11:29:38.967Z,97634.88
2018-09-22T11:32:06.628Z,97645.69
2018-09-22T11:34:34.320Z,97647.68
2018-09-22T11:37:01.980Z,97659.12
2018-09-22T11:39:29.680Z,97655.46
2018-09-22T11:41:57.416Z,97660.92
2018-09-22T11:44:25.092Z,97676.86
2018-09-22T11:46:52.855Z,97676.58
2018-09-22T11:49:20.549Z,97689.23
2018-09-22T11:51:48.235Z,97686.27
2018-09-22T11:54:15.900Z,97694.41
2018-09-22T11:56:43.668Z,97692.74
2018-09-22T11:59:11.348Z,97703.53
2018-09-22T12:01:39.026Z,97704.84
2018-09-22T12:04:06.815Z,97711.65
2018-09-22T12:06:34.592Z,97715.73
2018-09-22T12:09:02.324Z,97722.35
2018-09-22T12:11:30.028Z,97726.83
2018-09-22T12:13:57.737Z,97728.41
2018-09-22T12:16:25.529Z,97739.61
2018-09-22T12:18:53.189Z,97745.44
2018-09-22T12:21:20.882Z,97738.95
2018-09-22T12:23:48.569Z,97756.22
2018-09-22T12:26:16.230Z,97758.39
2018-09-22T12:28:43.959Z,97761.72
2018-09-22T12:31:11.620Z,97779.48
2018-09-22T12:33:39.312Z,97771.48
2018-09-22T12:36:07.197Z,97775.31
2018-09-22T12:38:34.925Z,97780.30
2018-09-22T12:41:02.624Z,97789.26
2018-09-22T12:43:30.380Z,97787.33
2018-09-22T12:45:58.099Z,97800.36
2018-09-22T12:48:25.772Z,97817.11
2018-09-22T12:50:53.436Z,97816.38
2018-09-22T12:53:21.148Z,97822.33
2018-09-22T12:55:48.821Z,97824.03
2018-09-22T12:58:16.535Z,97830.98
2018-09-22T13:00:44.250Z,97825.45
2018-09-22T13:03:11.904Z,97826.84
2018-09-22T13:05:39.612Z,97833.80
2018-09-22T13:08:07.276Z,97833.97
2018-09-22T13:10:34.964Z,97838.79
2018-09-22T13:13:02.660Z,97842.02
2018-09-22T13:15:30.336Z,97853.70
2018-09-22T13:17:58.012Z,97857.38
2018-09-22T13:20:25.658Z,97863.47
2018-09-22T13:22:53.492Z,97869.80
2018-09-22T13:25:21.167Z,97866.35
2018-09-22T13:27:48.836Z,97872.86
2018-09-22T13:30:16.653Z,97881.22
2018-09-22T13:32:44.313Z,97886.27
2018-09-22T13:35:11.984Z,97885.64
2018-09-22T13:37:39.666Z,97897.91
2018-09-22T13:40:07.389Z,97903.09
2018-09-22T13:42:35.097Z,97900.25
2018-09-22T13:45:02.791Z,97900.25
2018-09-22T13:47:30.482Z,97910.92
2018-09-22T13:49:58.223Z,97907.50
2018-09-22T13:52:25.879Z,97912.78
2018-09-22T13:54:53.531Z,97919.91
2018-09-22T13:57:21.222Z,97914.77
2018-09-22T13:59:48.894Z,97918.13
2018-09-22T14:02:16.587Z,97920.13
2018-09-22T14:04:44.231Z,97923.59
2018-09-22T14:07:11.916Z,97923.80
2018-09-22T14:09:39.729Z,97936.08
2018-09-22T14:12:07.425Z,97940.55
2018-09-22T14:14:35.088Z,97946.39
2018-09-22T14:17:02.757Z,97942.23
2018-09-22T14:19:30.399Z,97942.89
2018-09-22T14:21:58.122Z,97947.20
2018-09-22T14:24:25.802Z,97945.95
2018-09-22T14:26:53.505Z,97945.42
2018-09-22T14:29:21.192Z,97959.25
2018-09-22T14:31:48.865Z,97954.14
2018-09-22T14:34:16.552Z,97958.84
2018-09-22T14:36:44.223Z,97957.51
2018-09-22T14:39:11.891Z,97966.32
2018-09-22T14:41:39.573Z,97967.48
2018-09-22T14:44:07.498Z,97969.64
2018-09-22T14:46:35.176Z,97975.14
2018-09-22T14:49:02.857Z,97977.80
2018-09-22T14:51:30.548Z,97976.42
2018-09-22T14:53:58.235Z,97981.08
2018-09-22T14:56:25.903Z,97982.67
2018-09-22T14:58:53.587Z,97976.07
2018-09-22T15:01:21.239Z,97983.81
2018-09-22T15:03:48.963Z,97972.56
2018-09-22T15:06:16.705Z,97970.42
2018-09-22T15:08:44.420Z,97971.44
2018-09-22T15:11:12.136Z,97974.88
2018-09-22T15:13:39.885Z,97981.58
2018-09-22T15:16:07.584Z,97987.98
2018-09-22T15:18:35.305Z,97987.63
2018-09-22T15:21:02.997Z,97987.06
2018-09-22T15:23:30.648Z,97992.12
2018-09-22T15:25:58.368Z,97987.36
2018-09-22T15:28:26.158Z,97992.36
2018-09-22T15:30:53.859Z,97985.12
2018-09-22T15:33:21.540Z,97996.52
2018-09-22T15:35:49.313Z,97992.41
2018-09-22T15:38:17.050Z,97997.75
2018-09-22T15:40:44.723Z,97999.91
2018-09-22T15:43:12.396Z,98007.67
2018-09-22T15:45:40.310Z,98012.79
2018-09-22T15:48:08.014Z,98015.17
2018-09-22T15:50:35.718Z,98009.25
2018-09-22T15:53:03.472Z,98013.41
2018-09-22T15:55:31.132Z,98013.54
2018-09-22T15:57:58.812Z,98016.94
2018-09-22T16:00:26.544Z,98014.58
2018-09-22T16:02:54.272Z,98020.30
2018-09-22T16:05:21.949Z,98021.63
2018-09-22T16:07:49.707Z,98023.56
2018-09-22T16:10:17.414Z,98023.09
2018-09-22T16:12:45.072Z,98018.91
2018-09-22T16:15:12.765Z,98026.42
2018-09-22T16:17:40.451Z,98018.97
2018-09-22T16:20:08.148Z,98026.11
2018-09-22T16:22:35.827Z,98027.34
2018-09-22T16:25:03.584Z,98021.20
2018-09-22T16:27:31.296Z,98024.91
2018-09-22T16:29:58.963Z,98023.03
2018-09-22T16:32:26.617Z,98029.17
2018-09-22T16:34:54.354Z,98034.33
2018-09-22T16:37:22.009Z,98025.70
2018-09-22T16:39:49.679Z,98030.92
2018-09-22T16:42:17.376Z,98026.95
2018-09-22T16:44:45.102Z,98025.78
2018-09-22T16:47:12.776Z,98029.09
2018-09-22T16:49:40.441Z,98037.03
2018-09-22T16:52:08.276Z,98035.98
2018-09-22T16:54:35.943Z,98037.92
2018-09-22T16:57:03.679Z,98038.35
2018-09-22T16:59:31.388Z,98036.03
2018-09-22T17:01:59.047Z,98044.97
2018-09-22T17:04:26.731Z,98042.44
2018-09-22T17:06:54.448Z,98050.16
2018-09-22T17:09:22.331Z,98052.72
2018-09-22T17:11:50.012Z,98062.91
2018-09-22T17:14:17.692Z,98064.65
2018-09-22T17:16:45.426Z,98059.63
2018-09-22T17:19:13.405Z,98057.55
2018-09-22T17:21:41.092Z,98060.75
2018-09-22T17:24:08.780Z,98051.73
2018-09-22T17:26:36.477Z,98058.47
2018-09-22T17:29:04.237Z,98061.03
2018-09-22T17:31:31.923Z,98053.16
2018-09-22T17:33:59.588Z,98062.59
2018-09-22T17:36:27.288Z,98069.00
2018-09-22T17:38:55.327Z,98067.67
2018-09-22T17:41:23.074Z,98070.11
2018-09-22T17:43:50.780Z,98076.80
2018-09-22T17:46:18.427Z,98075.87
2018-09-22T17:48:46.078Z,98080.63
2018-09-22T17:51:13.797Z,98083.80
2018-09-22T17:53:41.501Z,98089.77
2018-09-22T17:56:09.168Z,98084.72
2018-09-22T17:58:36.855Z,98075.99
2018-09-22T18:01:04.589Z,98079.27
2018-09-22T18:03:32.265Z,98077.63
2018-09-22T18:06:00.045Z,98078.05
2018-09-22T18:08:28.379Z,98082.60
2018-09-22T18:10:56.083Z,98091.11
2018-09-22T18:13:23.808Z,98090.00
2018-09-22T18:15:51.502Z,98096.93
2018-09-22T18:18:19.155Z,98100.63
2018-09-22T18:20:46.856Z,98091.00
2018-09-22T18:23:14.596Z,98097.46
2018-09-22T18:25:42.280Z,98095.28
2018-09-22T18:28:09.952Z,98098.78
2018-09-22T18:30:37.627Z,98102.58
2018-09-22T18:33:05.461Z,98107.65
2018-09-22T18:35:33.144Z,98109.29
2018-09-22T18:38:00.883Z,98103.73
2018-09-22T18:40:28.614Z,98106.02
2018-09-22T18:42:56.270Z,98099.72
2018-09-22T18:45:23.949Z,98097.81
2018-09-22T18:47:51.621Z,98098.34
2018-09-22T18:50:19.328Z,98101.36
2018-09-22T18:52:46.991Z,98103.51
2018-09-22T18:55:14.745Z,98106.16
2018-09-22T18:57:42.396Z,98109.55
2018-09-22T19:00:10.152Z,98107.97
2018-09-22T19:02:37.825Z,98110.87
2018-09-22T19:05:05.621Z,98103.81
2018-09-22T19:07:33.300Z,98116.59
2018-09-22T19:10:00.967Z,98113.69
2018-09-22T19:12:28.784Z,98115.92
2018-09-22T19:15:59.639Z,98121.42
2018-09-22T19:18:31.578Z,98121.70
2018-09-22T19:21:04.688Z,98121.05
2018-09-22T19:24:39.419Z,98116.20
2018-09-22T19:27:10.830Z,98116.22
2018-09-22T19:29:44.272Z,98112.89
2018-09-22T19:32:30.580Z,98116.13
2018-09-22T19:35:02.738Z,98121.61
2018-09-22T19:37:38.303Z,98124.17
2018-09-22T19:40:16.136Z,98123.33
2018-09-22T19:43:18.891Z,98126.65
2018-09-22T19:45:48.956Z,98125.48
2018-09-22T19:48:21.572Z,98125.21
2018-09-22T19:50:53.537Z,98131.72
2018-09-22T19:53:21.247Z,98138.29
2018-09-22T19:55:48.948Z,98136.27
2018-09-22T19:58:16.641Z,98137.92
2018-09-22T20:00:44.451Z,98141.26
2018-09-22T20:03:12.140Z,98144.16
2018-09-22T20:05:39.892Z,98151.91
2018-09-22T20:08:07.634Z,98154.45
2018-09-22T20:10:35.292Z,98150.38
2018-09-22T20:13:02.991Z,98149.69
2018-09-22T20:15:30.692Z,98144.55
2018-09-22T20:17:58.396Z,98139.89
2018-09-22T20:20:26.098Z,98151.31
2018-09-22T20:22:53.767Z,98156.80
2018-09-22T20:25:21.439Z,98156.22
2018-09-22T20:27:49.164Z,98159.45
2018-09-22T20:30:16.873Z,98158.35
2018-09-22T20:32:44.563Z,98165.66
2018-09-22T20:35:12.244Z,98168.05
2018-09-22T20:37:39.980Z,98161.18
2018-09-22T20:40:07.676Z,98156.44
2018-09-22T20:42:35.341Z,98165.91
2018-09-22T20:45:03.075Z,98174.06
2018-09-22T20:47:30.739Z,98169.88
2018-09-22T20:49:58.413Z,98170.36
2018-09-22T20:52:26.133Z,98171.34
2018-09-22T20:54:54.032Z,98175.16
2018-09-22T20:57:21.739Z,98177.77
2018-09-22T20:59:49.396Z,98182.80
2018-09-22T21:02:17.096Z,98181.04
2018-09-22T21:04:44.823Z,98178.66
2018-09-22T21:07:12.483Z,98176.45
2018-09-22T21:09:40.140Z,98177.25
2018-09-22T21:12:07.831Z,98185.47
2018-09-22T21:14:35.502Z,98187.30
2018-09-22T21:17:03.183Z,98187.73
2018-09-22T21:19:30.984Z,98198.36
2018-09-22T21:21:58.720Z,98196.23
2018-09-22T21:24:26.460Z,98201.52
2018-09-22T21:26:54.180Z,98200.94
2018-09-22T21:29:21.852Z,98208.09
2018-09-22T21:31:49.552Z,98205.49
2018-09-22T21:34:17.268Z,98204.80
2018-09-22T21:36:44.916Z,98216.58
2018-09-22T21:39:12.580Z,98218.67
2018-09-22T21:41:40.404Z,98218.30
2018-09-22T21:44:08.085Z,98220.39
2018-09-22T21:46:35.748Z,98221.56
2018-09-22T21:49:03.688Z,98218.16
2018-09-22T21:51:31.409Z,98228.73
2018-09-22T21:53:59.116Z,98224.87
2018-09-22T21:56:26.787Z,98224.40
2018-09-22T21:58:54.500Z,98216.84
2018-09-22T22:01:27.589Z,98221.76
2018-09-22T22:03:55.280Z,98223.89
2018-09-22T22:06:22.976Z,98225.69
2018-09-22T22:08:50.627Z,98229.91
2018-09-22T22:11:18.354Z,98227.05
2018-09-22T22:13:46.024Z,98229.94
2018-09-22T22:16:13.671Z,98231.48
2018-09-22T22:18:41.461Z,98231.34
2018-09-22T22:21:09.142Z,98235.78
2018-09-22T22:23:36.808Z,98232.88
2018-09-22T22:26:04.492Z,98236.73
2018-09-22T22:28:32.438Z,98238.80
2018-09-22T22:31:00.130Z,98237.95
2018-09-22T22:33:27.786Z,98241.52
2018-09-22T22:35:55.492Z,98239.75
2018-09-22T22:38:23.156Z,98238.83
2018-09-22T22:40:50.859Z,98248.81
2018-09-22T22:43:18.581Z,98250.50
2018-09-22T22:45:46.264Z,98253.03
2018-09-22T22:48:13.960Z,98251.09
2018-09-22T22:50:41.787Z,98243.38
2018-09-22T22:53:09.448Z,98250.98
2018-09-22T22:55:37.145Z,98251.70
2018-09-22T22:58:04.896Z,98258.20
2018-09-22T23:00:32.595Z,98270.48
2018-09-22T23:03:00.264Z,98267.98
2018-09-22T23:05:27.949Z,98265.47
2018-09-22T23:07:55.614Z,98266.30
2018-09-22T23:10:23.341Z,98263.55
2018-09-22T23:12:51.028Z,98275.91
2018-09-22T23:15:18.943Z,98274.86
2018-09-22T23:17:46.619Z,98275.33
2018-09-22T23:20:14.306Z,98271.25
2018-09-22T23:22:41.976Z,98268.73
2018-09-22T23:25:09.672Z,98271.73
2018-09-22T23:27:37.329Z,98270.54
2018-09-22T23:30:05.353Z,98271.12
2018-09-22T23:32:33.072Z,98276.42
2018-09-22T23:35:00.795Z,98276.16
2018-09-22T23:37:28.453Z,98284.00
2018-09-22T23:39:56.188Z,98281.34
2018-09-22T23:42:23.851Z,98286.14
2018-09-22T23:44:51.508Z,98294.69
2018-09-22T23:47:19.220Z,98288.77
2018-09-22T23:49:46.892Z,98300.91
2018-09-22T23:52:14.560Z,98300.66
2018-09-22T23:54:42.309Z,98296.46
2018-09-22T23:57:09.992Z,98294.53
2018-09-22T23:59:37.656Z,98296.25
